Hyakuri Airport


Codes: RJAH/IBR
Name: Hyakuri Airport
City: Omitama
Country: Japan
Elevation: 105 ft.
Wikipedia:

Photos at Hyakuri Airport


   Photos courtesy of SpottingLog. You can add your own sightings and photos by signing up for a free trial today.



97-8416, 04-Sep-2020
© Tomo-Papa

17-8437, 04-Sep-2020
© Tomo-Papa

43-8529, 04-Sep-2020
© Tomo-Papa

33-8522, 04-Aug-2020
© Tomo-Papa

02-3032, 04-Aug-2020
© Tomo-Papa

77-8395, 04-Aug-2020
© Tomo-Papa

07-8434, 04-Aug-2020
© Tomo-Papa

63-8538, 04-Aug-2020
© Tomo-Papa

07-8436, 30-Nov-2019
© Tomo-Papa

37-8315, 30-Nov-2019
© Tomo-Papa

5513, 30-Nov-2019
© Tomo-Papa

47-6901, 30-Nov-2019
© Tomo-Papa


Weather at Hyakuri Airport


Time (UTC)DescriptionTempratureWindCloud coverageVisibilityPressureHumidity
21-Jun-2024 12:00Light Rain18°C7 mph, N75%10000m1003hPa94%
21-Jun-2024 15:00Scattered Clouds18°C2 mph, NW50%10000m1004hPa93%
21-Jun-2024 18:00Scattered Clouds17°C4 mph, W34%10000m1006hPa92%
21-Jun-2024 21:00Overcast Clouds18°C2 mph, N100%10000m1008hPa85%
22-Jun-2024 00:00Overcast Clouds23°C2 mph, SW100%10000m1009hPa60%
22-Jun-2024 03:00Overcast Clouds27°C7 mph, S100%10000m1008hPa48%
22-Jun-2024 06:00Overcast Clouds27°C7 mph, S100%10000m1007hPa50%
22-Jun-2024 09:00Overcast Clouds25°C7 mph, S100%10000m1007hPa69%
22-Jun-2024 12:00Overcast Clouds23°C9 mph, S100%10000m1007hPa74%
22-Jun-2024 15:00Light Rain22°C9 mph, SW100%10000m1006hPa90%
22-Jun-2024 18:00Light Rain21°C11 mph, S100%10000m1004hPa95%
22-Jun-2024 21:00Moderate Rain20°C7 mph, SE100%4369m1003hPa98%
23-Jun-2024 00:00Light Rain21°C4 mph, NW100%3552m1001hPa99%
23-Jun-2024 03:00Light Rain22°C2 mph, NW100%10000m1000hPa95%
23-Jun-2024 06:00Light Rain23°C2 mph, W100%10000m1000hPa94%
23-Jun-2024 09:00Light Rain22°C2 mph, W100%10000m1000hPa98%
23-Jun-2024 12:00Moderate Rain21°C4 mph, NE100%10000m999hPa99%
23-Jun-2024 15:00Light Rain21°C2 mph, NW100%10000m1000hPa99%
23-Jun-2024 18:00Overcast Clouds21°C4 mph, E98%10000m1000hPa99%
23-Jun-2024 21:00Overcast Clouds21°C2 mph, NE100%10000m1002hPa96%
24-Jun-2024 00:00Light Rain25°C0 mph, N99%10000m1003hPa84%
24-Jun-2024 03:00Overcast Clouds27°C2 mph, SW100%10000m1002hPa74%
24-Jun-2024 06:00Overcast Clouds30°C0 mph, SW99%10000m1002hPa62%
24-Jun-2024 09:00Overcast Clouds25°C7 mph, SE98%10000m1003hPa82%
24-Jun-2024 12:00Light Rain23°C2 mph, E99%10000m1004hPa97%
24-Jun-2024 15:00Light Rain22°C4 mph, NE100%7766m1003hPa98%
24-Jun-2024 18:00Overcast Clouds22°C4 mph, N99%2150m1003hPa99%
24-Jun-2024 21:00Broken Clouds24°C2 mph, W83%10000m1005hPa91%
25-Jun-2024 00:00Broken Clouds29°C2 mph, SE72%10000m1005hPa63%
25-Jun-2024 03:00Broken Clouds25°C9 mph, SE54%10000m1005hPa76%
25-Jun-2024 06:00Light Rain25°C7 mph, E77%10000m1005hPa74%
25-Jun-2024 09:00Overcast Clouds24°C9 mph, NE100%10000m1006hPa82%
25-Jun-2024 12:00Overcast Clouds23°C2 mph, E89%10000m1008hPa82%
25-Jun-2024 15:00Overcast Clouds22°C0 mph, SE99%10000m1009hPa79%
25-Jun-2024 18:00Overcast Clouds22°C2 mph, SE100%10000m1009hPa82%
25-Jun-2024 21:00Overcast Clouds22°C2 mph, N100%10000m1011hPa79%
26-Jun-2024 00:00Overcast Clouds23°C2 mph, NE99%10000m1012hPa67%
26-Jun-2024 03:00Overcast Clouds25°C7 mph, E99%10000m1012hPa59%
26-Jun-2024 06:00Overcast Clouds25°C7 mph, E100%10000m1012hPa59%
26-Jun-2024 09:00Overcast Clouds23°C7 mph, E100%10000m1012hPa72%